createdAt,value
2017-10-20T00:02:23.221Z,97400.22
2017-10-20T00:04:50.935Z,97395.56
2017-10-20T00:07:19.198Z,97393.44
2017-10-20T00:09:46.928Z,97397.76
2017-10-20T00:12:14.827Z,97390.78
2017-10-20T00:14:44.523Z,97388.89
2017-10-20T00:17:14.528Z,97381.11
2017-10-20T00:19:43.706Z,97389.33
2017-10-20T00:22:12.538Z,97389.80
2017-10-20T00:24:41.313Z,97390.02
2017-10-20T00:27:10.092Z,97387.78
2017-10-20T00:29:37.971Z,97392.49
2017-10-20T00:32:06.340Z,97393.45
2017-10-20T00:34:34.281Z,97354.30
2017-10-20T00:37:02.875Z,97391.73
2017-10-20T00:39:31.543Z,97393.00
2017-10-20T00:42:00.367Z,97393.31
2017-10-20T00:44:28.236Z,97384.50
2017-10-20T00:46:55.948Z,97394.26
2017-10-20T00:49:23.511Z,97386.52
2017-10-20T00:51:51.265Z,97390.78
2017-10-20T00:54:19.776Z,97386.19
2017-10-20T00:56:47.679Z,97388.02
2017-10-20T00:59:15.931Z,97388.97
2017-10-20T01:01:43.509Z,97386.44
2017-10-20T01:04:11.109Z,97391.45
2017-10-20T01:06:40.774Z,97392.14
2017-10-20T01:09:10.260Z,97395.05
2017-10-20T01:11:37.851Z,97398.78
2017-10-20T01:14:05.429Z,97365.67
2017-10-20T01:16:34.030Z,97403.47
2017-10-20T01:19:01.575Z,97403.05
2017-10-20T01:21:29.207Z,97384.14
2017-10-20T01:23:56.789Z,97397.12
2017-10-20T01:26:24.446Z,97367.53
2017-10-20T01:28:52.578Z,97395.14
2017-10-20T01:31:21.056Z,97399.95
2017-10-20T01:33:48.792Z,97401.06
2017-10-20T01:38:51.728Z,97389.71
2017-10-20T01:41:20.760Z,97393.30
2017-10-20T01:43:50.143Z,97328.14
2017-10-20T01:46:17.892Z,97385.43
2017-10-20T01:48:47.205Z,97392.66
2017-10-20T01:51:14.998Z,97405.56
2017-10-20T01:53:42.983Z,97408.18
2017-10-20T01:56:12.531Z,97399.45
2017-10-20T01:58:40.255Z,97384.99
2017-10-20T02:01:08.036Z,97392.78
2017-10-20T02:03:35.943Z,97393.77
2017-10-20T02:06:03.785Z,97404.02
2017-10-20T02:08:32.654Z,97412.20
2017-10-20T02:11:01.452Z,97411.86
2017-10-20T02:13:29.851Z,97408.42
2017-10-20T02:15:57.469Z,97406.81
2017-10-20T02:18:26.193Z,97415.57
2017-10-20T02:20:53.917Z,97424.78
2017-10-20T02:23:21.539Z,97345.55
2017-10-20T02:25:49.392Z,97423.00
2017-10-20T02:28:18.332Z,97420.02
2017-10-20T02:30:45.991Z,97428.47
2017-10-20T02:33:14.525Z,97430.02
2017-10-20T02:35:42.247Z,97422.95
2017-10-20T02:38:11.032Z,97292.29
2017-10-20T02:40:39.979Z,97412.44
2017-10-20T02:43:08.336Z,97414.77
2017-10-20T02:45:36.688Z,97407.38
2017-10-20T02:48:04.399Z,97417.94
2017-10-20T02:50:33.034Z,97415.47
2017-10-20T02:53:01.108Z,97408.01
2017-10-20T02:55:30.729Z,97417.61
2017-10-20T02:57:58.870Z,97408.61
2017-10-20T03:00:27.401Z,97407.44
2017-10-20T03:02:55.238Z,97413.36
2017-10-20T03:05:22.828Z,97417.89
2017-10-20T03:07:50.445Z,97420.31
2017-10-20T03:10:18.046Z,97423.13
2017-10-20T03:12:45.610Z,97419.54
2017-10-20T03:15:15.083Z,97410.89
2017-10-20T03:17:42.696Z,97414.30
2017-10-20T03:20:10.255Z,97415.40
2017-10-20T03:22:37.812Z,97427.50
2017-10-20T03:25:05.398Z,97428.66
2017-10-20T03:27:33.058Z,97417.97
2017-10-20T03:30:02.203Z,97405.55
2017-10-20T03:32:30.133Z,97310.34
2017-10-20T03:34:58.835Z,97410.73
2017-10-20T03:37:26.649Z,97406.98
2017-10-20T03:39:55.067Z,97406.70
2017-10-20T03:42:23.572Z,97408.23
2017-10-20T03:44:51.268Z,97411.31
2017-10-20T03:47:19.022Z,97412.44
2017-10-20T03:49:46.677Z,97396.47
2017-10-20T03:52:15.333Z,97396.41
2017-10-20T03:54:43.743Z,97394.57
2017-10-20T03:57:12.188Z,97400.59
2017-10-20T03:59:40.769Z,97398.12
2017-10-20T04:02:08.502Z,97386.52
2017-10-20T04:04:36.285Z,97396.14
2017-10-20T04:07:04.832Z,97401.05
2017-10-20T04:09:32.405Z,97401.14
2017-10-20T04:12:00.054Z,97401.06
2017-10-20T04:14:31.115Z,97409.98
2017-10-20T04:16:59.469Z,97410.97
2017-10-20T04:19:26.993Z,97419.94
2017-10-20T04:21:54.789Z,97423.60
2017-10-20T04:24:22.359Z,97422.98
2017-10-20T04:26:49.976Z,97418.19
2017-10-20T04:29:18.250Z,97421.02
2017-10-20T04:31:45.889Z,97419.75
2017-10-20T04:34:13.503Z,97414.41
2017-10-20T04:36:41.054Z,97414.60
2017-10-20T04:39:09.565Z,97411.17
2017-10-20T04:41:37.114Z,97410.97
2017-10-20T04:44:04.792Z,97411.98
2017-10-20T04:46:32.387Z,97423.43
2017-10-20T04:49:00.098Z,97422.17
2017-10-20T04:51:28.479Z,97426.86
2017-10-20T04:53:56.225Z,97417.30
2017-10-20T04:56:23.745Z,97420.19
2017-10-20T04:58:51.545Z,97428.44
2017-10-20T05:01:19.083Z,97429.30
2017-10-20T05:03:47.212Z,97421.42
2017-10-20T05:06:14.923Z,97423.97
2017-10-20T05:08:42.531Z,97425.71
2017-10-20T05:11:13.530Z,97425.68
2017-10-20T05:13:41.877Z,97416.98
2017-10-20T05:16:09.707Z,97440.52
2017-10-20T05:18:38.051Z,97425.53
2017-10-20T05:21:05.635Z,97435.22
2017-10-20T05:23:33.153Z,97432.02
2017-10-20T05:26:00.778Z,97426.20
2017-10-20T05:28:29.287Z,97416.55
2017-10-20T05:30:57.746Z,97416.61
2017-10-20T05:33:25.657Z,97422.70
2017-10-20T05:35:53.207Z,97420.97
2017-10-20T05:38:20.804Z,97432.73
2017-10-20T05:40:48.317Z,97429.79
2017-10-20T05:43:15.796Z,97428.72
2017-10-20T05:45:43.292Z,97421.30
2017-10-20T05:48:10.848Z,97424.80
2017-10-20T05:50:38.388Z,97426.42
2017-10-20T05:53:05.912Z,97433.10
2017-10-20T05:55:33.473Z,97436.41
2017-10-20T05:58:01.078Z,97435.02
2017-10-20T06:00:28.775Z,97439.73
2017-10-20T06:02:59.164Z,97437.17
2017-10-20T06:05:26.722Z,97440.91
2017-10-20T06:07:54.345Z,97444.45
2017-10-20T06:10:21.976Z,97448.88
2017-10-20T06:12:49.473Z,97451.81
2017-10-20T06:15:17.063Z,97462.73
2017-10-20T06:17:44.572Z,97460.78
2017-10-20T06:20:12.124Z,97457.15
2017-10-20T06:22:39.638Z,97465.05
2017-10-20T06:25:07.194Z,97457.89
2017-10-20T06:27:34.740Z,97467.33
2017-10-20T06:30:02.282Z,97478.66
2017-10-20T06:32:29.851Z,97482.47
2017-10-20T06:34:57.410Z,97487.52
2017-10-20T06:37:24.967Z,97483.50
2017-10-20T06:39:52.483Z,97477.63
2017-10-20T06:42:20.040Z,97480.73
2017-10-20T06:44:47.602Z,97491.69
2017-10-20T06:47:15.195Z,97490.77
2017-10-20T06:49:42.791Z,97495.73
2017-10-20T06:52:10.392Z,97499.95
2017-10-20T06:54:37.969Z,97502.56
2017-10-20T06:57:05.530Z,97504.70
2017-10-20T06:59:33.162Z,97501.00
2017-10-20T07:02:00.734Z,97493.19
2017-10-20T07:04:28.620Z,97494.55
2017-10-20T07:06:56.175Z,97500.34
2017-10-20T07:09:24.665Z,97505.81
2017-10-20T07:11:52.225Z,97510.27
2017-10-20T07:14:19.780Z,97502.11
2017-10-20T07:16:47.485Z,97511.63
2017-10-20T07:19:16.476Z,97513.22
2017-10-20T07:21:43.994Z,97516.37
2017-10-20T07:24:11.808Z,97525.49
2017-10-20T07:26:39.413Z,97529.75
2017-10-20T07:29:07.089Z,97527.44
2017-10-20T07:31:34.683Z,97531.15
2017-10-20T07:34:03.239Z,97522.86
2017-10-20T07:36:32.104Z,97523.33
2017-10-20T07:39:02.477Z,97518.09
2017-10-20T07:41:30.077Z,97517.17
2017-10-20T07:43:57.625Z,97522.58
2017-10-20T07:46:26.113Z,97533.22
2017-10-20T07:48:53.982Z,97529.88
2017-10-20T07:51:21.517Z,97529.06
2017-10-20T07:53:49.049Z,97536.08
2017-10-20T07:56:16.552Z,97541.13
2017-10-20T07:58:44.131Z,97553.01
2017-10-20T08:01:11.649Z,97551.14
2017-10-20T08:03:39.181Z,97551.72
2017-10-20T08:06:06.762Z,97554.46
2017-10-20T08:08:34.539Z,97558.83
2017-10-20T08:11:02.082Z,97560.63
2017-10-20T08:13:29.714Z,97555.84
2017-10-20T08:15:57.248Z,97566.56
2017-10-20T08:18:25.464Z,97561.77
2017-10-20T08:20:53.027Z,97563.45
2017-10-20T08:23:20.587Z,97567.95
2017-10-20T08:25:50.424Z,97563.29
2017-10-20T08:28:17.948Z,97571.92
2017-10-20T08:30:45.816Z,97563.77
2017-10-20T08:33:13.372Z,97565.43
2017-10-20T08:35:41.707Z,97559.32
2017-10-20T08:38:09.388Z,97560.39
2017-10-20T08:40:36.958Z,97561.74
2017-10-20T08:43:04.518Z,97564.31
2017-10-20T08:45:32.026Z,97568.61
2017-10-20T08:47:59.534Z,97564.87
2017-10-20T08:50:27.108Z,97568.84
2017-10-20T08:52:54.633Z,97575.09
2017-10-20T08:55:22.204Z,97576.00
2017-10-20T08:57:50.563Z,97566.38
2017-10-20T09:00:18.961Z,97579.98
2017-10-20T09:02:47.357Z,97566.77
2017-10-20T09:05:14.876Z,97572.25
2017-10-20T09:07:43.179Z,97570.60
2017-10-20T09:10:10.769Z,97570.08
2017-10-20T09:12:41.091Z,97577.06
2017-10-20T09:15:08.631Z,97579.21
2017-10-20T09:17:36.175Z,97577.03
2017-10-20T09:20:03.735Z,97580.48
2017-10-20T09:22:31.292Z,97588.52
2017-10-20T09:24:58.858Z,97594.48
2017-10-20T09:27:26.445Z,97587.77
2017-10-20T09:29:54.003Z,97591.09
2017-10-20T09:32:21.562Z,97585.06
2017-10-20T09:34:49.058Z,97584.86
2017-10-20T09:37:16.696Z,97584.91
2017-10-20T09:39:44.260Z,97591.05
2017-10-20T09:42:11.821Z,97587.34
2017-10-20T09:44:39.407Z,97590.72
2017-10-20T09:47:07.742Z,97587.94
2017-10-20T09:49:36.187Z,97588.32
2017-10-20T09:52:03.718Z,97590.30
2017-10-20T09:54:31.279Z,97592.32
2017-10-20T09:56:58.944Z,97595.47
2017-10-20T09:59:26.545Z,97600.64
2017-10-20T10:01:54.667Z,97596.89
2017-10-20T10:04:22.296Z,97584.77
2017-10-20T10:06:49.913Z,97568.84
2017-10-20T10:09:17.443Z,97592.95
2017-10-20T10:11:44.947Z,97590.24
2017-10-20T10:14:12.440Z,97586.25
2017-10-20T10:16:40.008Z,97589.55
2017-10-20T10:19:07.513Z,97583.32
2017-10-20T10:21:35.124Z,97577.64
2017-10-20T10:24:02.585Z,97572.72
2017-10-20T10:26:30.110Z,97573.05
2017-10-20T10:28:59.143Z,97566.78
2017-10-20T10:31:27.921Z,97570.27
2017-10-20T10:33:55.952Z,97567.77
2017-10-20T10:36:23.632Z,97574.08
2017-10-20T10:38:51.448Z,97566.98
2017-10-20T10:41:19.073Z,97561.51
2017-10-20T10:43:47.147Z,97568.06
2017-10-20T10:46:15.127Z,97575.58
2017-10-20T10:48:45.803Z,97572.70
2017-10-20T10:51:13.477Z,97583.63
2017-10-20T10:53:41.159Z,97565.57
2017-10-20T10:56:09.464Z,97571.87
2017-10-20T10:58:38.583Z,97563.11
2017-10-20T11:01:06.428Z,97563.34
2017-10-20T11:03:34.110Z,97552.98
2017-10-20T11:06:13.432Z,97568.16
2017-10-20T11:08:52.965Z,97567.66
2017-10-20T11:11:32.508Z,97565.46
2017-10-20T11:14:00.093Z,97562.18
2017-10-20T11:16:27.789Z,97562.27
2017-10-20T11:18:56.630Z,97564.69
2017-10-20T11:21:24.344Z,97571.47
2017-10-20T11:23:52.978Z,97571.34
2017-10-20T11:26:21.609Z,97569.98
2017-10-20T11:28:49.436Z,97568.73
2017-10-20T11:31:17.110Z,97571.70
2017-10-20T11:33:44.854Z,97566.67
2017-10-20T11:36:12.614Z,97575.89
2017-10-20T11:38:40.259Z,97573.53
2017-10-20T11:41:08.663Z,97570.17
2017-10-20T11:43:36.299Z,97575.33
2017-10-20T11:46:03.962Z,97577.64
2017-10-20T11:48:31.528Z,97583.48
2017-10-20T11:50:59.207Z,97578.67
2017-10-20T11:53:27.303Z,97583.70
2017-10-20T11:55:56.396Z,97574.26
2017-10-20T11:58:24.957Z,97588.47
2017-10-20T12:00:53.502Z,97592.83
2017-10-20T12:03:21.151Z,97583.91
2017-10-20T12:05:48.687Z,97592.47
2017-10-20T12:08:16.224Z,97593.66
2017-10-20T12:10:43.727Z,97589.98
2017-10-20T12:13:11.504Z,97592.51
2017-10-20T12:15:39.078Z,97595.14
2017-10-20T12:18:06.722Z,97592.55
2017-10-20T12:20:34.329Z,97585.48
2017-10-20T12:23:01.849Z,97596.20
2017-10-20T12:25:29.611Z,97592.46
2017-10-20T12:27:57.207Z,97599.75
2017-10-20T12:30:24.705Z,97599.79
2017-10-20T12:32:52.337Z,97603.81
2017-10-20T12:35:20.389Z,97597.88
2017-10-20T12:37:48.092Z,97602.52
2017-10-20T12:40:15.677Z,97610.28
2017-10-20T12:42:43.229Z,97605.76
2017-10-20T12:45:10.829Z,97605.55
2017-10-20T12:47:39.356Z,97609.11
2017-10-20T12:50:07.136Z,97610.36
2017-10-20T12:52:35.993Z,97610.84
2017-10-20T12:55:03.595Z,97609.91
2017-10-20T12:57:31.128Z,97616.73
2017-10-20T12:59:58.669Z,97619.46
2017-10-20T13:02:27.188Z,97621.17
2017-10-20T13:04:54.881Z,97619.09
2017-10-20T13:07:22.415Z,97619.95
2017-10-20T13:09:50.025Z,97630.19
2017-10-20T13:12:18.430Z,97601.24
2017-10-20T13:14:47.296Z,97633.92
2017-10-20T13:17:15.097Z,97641.23
2017-10-20T13:19:42.883Z,97633.73
2017-10-20T13:22:10.519Z,97636.38
2017-10-20T13:24:38.278Z,97626.59
2017-10-20T13:27:06.154Z,97636.64
2017-10-20T13:29:33.693Z,97628.93
2017-10-20T13:32:01.205Z,97632.69
2017-10-20T13:34:28.744Z,97628.53
2017-10-20T13:36:56.260Z,97633.31
2017-10-20T13:39:23.865Z,97630.89
2017-10-20T13:41:52.465Z,97636.50
2017-10-20T13:44:20.063Z,97628.26
2017-10-20T13:46:47.728Z,97638.77
2017-10-20T13:49:15.279Z,97635.66
2017-10-20T13:51:42.838Z,97634.59
2017-10-20T13:54:10.716Z,97635.95
2017-10-20T13:56:38.240Z,97644.23
2017-10-20T13:59:05.775Z,97649.57
2017-10-20T14:01:33.295Z,97638.00
2017-10-20T14:04:01.378Z,97636.80
2017-10-20T14:06:28.967Z,97626.11
2017-10-20T14:08:56.570Z,97619.83
2017-10-20T14:11:24.129Z,97627.44
2017-10-20T14:13:51.705Z,97628.84
2017-10-20T14:16:19.425Z,97633.43
2017-10-20T14:18:47.104Z,97634.47
2017-10-20T14:21:14.616Z,97634.20
2017-10-20T14:23:42.168Z,97636.63
2017-10-20T14:26:09.722Z,97639.45
2017-10-20T14:28:37.326Z,97644.17
2017-10-20T14:31:04.863Z,97651.30
2017-10-20T14:33:33.417Z,97648.86
2017-10-20T14:36:01.368Z,97647.60
2017-10-20T14:38:28.880Z,97650.22
2017-10-20T14:40:56.451Z,97655.92
2017-10-20T14:43:23.998Z,97662.13
2017-10-20T14:45:51.798Z,97658.84
2017-10-20T14:48:19.366Z,97655.52
2017-10-20T14:50:46.919Z,97655.83
2017-10-20T14:53:14.456Z,97655.72
2017-10-20T14:55:41.999Z,97666.63
2017-10-20T14:58:09.507Z,97664.19
2017-10-20T15:00:38.106Z,97659.36
2017-10-20T15:03:05.665Z,97656.52
2017-10-20T15:05:33.903Z,97644.41
2017-10-20T15:08:01.442Z,97649.91
2017-10-20T15:10:29.035Z,97653.74
2017-10-20T15:12:56.537Z,97656.95
2017-10-20T15:15:25.033Z,97658.64
2017-10-20T15:17:52.653Z,97656.34
2017-10-20T15:20:20.237Z,97655.30
2017-10-20T15:22:47.720Z,97657.11
2017-10-20T15:25:15.268Z,97662.36
2017-10-20T15:27:42.776Z,97664.52
2017-10-20T15:30:10.373Z,97661.64
2017-10-20T15:32:37.971Z,97655.06
2017-10-20T15:35:05.550Z,97657.83
2017-10-20T15:37:33.065Z,97661.98
2017-10-20T15:40:00.559Z,97659.46
2017-10-20T15:42:28.082Z,97630.95
2017-10-20T15:44:56.497Z,97656.58
2017-10-20T15:47:24.039Z,97658.84
2017-10-20T15:49:52.393Z,97660.60
2017-10-20T15:52:19.928Z,97654.21
2017-10-20T15:54:47.507Z,97644.11
2017-10-20T15:57:15.048Z,97647.05
2017-10-20T15:59:42.649Z,97658.23
2017-10-20T16:02:11.233Z,97660.84
2017-10-20T16:04:38.753Z,97659.41
2017-10-20T16:07:06.333Z,97660.55
2017-10-20T16:09:33.888Z,97661.55
2017-10-20T16:12:01.413Z,97671.61
2017-10-20T16:14:28.979Z,97672.33
2017-10-20T16:16:56.532Z,97669.83
2017-10-20T16:19:25.447Z,97673.39
2017-10-20T16:21:53.249Z,97676.11
2017-10-20T16:24:21.453Z,97671.87
2017-10-20T16:26:49.154Z,97677.27
2017-10-20T16:29:16.706Z,97679.56
2017-10-20T16:31:44.408Z,97679.56
2017-10-20T16:34:12.026Z,97691.05
2017-10-20T16:36:39.631Z,97687.00
2017-10-20T16:39:07.160Z,97682.79
2017-10-20T16:41:37.093Z,97686.11
2017-10-20T16:44:05.130Z,97688.43
2017-10-20T16:46:33.603Z,97689.59
2017-10-20T16:49:02.367Z,97693.50
2017-10-20T16:51:30.033Z,97696.32
2017-10-20T16:53:58.192Z,97707.13
2017-10-20T16:56:26.777Z,97705.53
2017-10-20T16:58:55.635Z,97703.61
2017-10-20T17:01:24.672Z,97704.16
2017-10-20T17:03:53.679Z,97701.02
2017-10-20T17:06:22.304Z,97703.61
2017-10-20T17:08:50.260Z,97708.41
2017-10-20T17:11:18.979Z,97710.11
2017-10-20T17:13:47.080Z,97703.94
2017-10-20T17:16:15.126Z,97655.39
2017-10-20T17:18:46.093Z,97716.66
2017-10-20T17:21:15.382Z,97723.58
2017-10-20T17:23:43.467Z,97724.80
2017-10-20T17:26:12.473Z,97721.72
2017-10-20T17:28:40.311Z,97711.70
2017-10-20T17:31:08.215Z,97720.39
2017-10-20T17:33:35.864Z,97726.41
2017-10-20T17:36:03.754Z,97730.05
2017-10-20T17:38:31.941Z,97719.81
2017-10-20T17:41:00.239Z,97721.84
2017-10-20T17:43:28.069Z,97726.56
2017-10-20T17:45:55.858Z,97732.09
2017-10-20T17:48:23.773Z,97737.77
2017-10-20T17:50:52.516Z,97732.34
2017-10-20T17:53:20.827Z,97731.27
2017-10-20T17:55:48.518Z,97728.79
2017-10-20T17:58:16.684Z,97726.99
2017-10-20T18:00:44.458Z,97732.66
2017-10-20T18:03:12.121Z,97731.47
2017-10-20T18:05:39.882Z,97732.86
2017-10-20T18:08:07.722Z,97739.29
2017-10-20T18:10:36.369Z,97744.36
2017-10-20T18:13:06.005Z,97733.69
2017-10-20T18:15:33.882Z,97730.51
2017-10-20T18:18:02.783Z,97683.29
2017-10-20T18:20:31.350Z,97732.30
2017-10-20T18:22:59.168Z,97732.19
2017-10-20T18:25:27.313Z,97736.20
2017-10-20T18:27:55.155Z,97729.30
2017-10-20T18:30:24.606Z,97727.32
2017-10-20T18:32:52.261Z,97728.15
2017-10-20T18:35:22.306Z,97733.73
2017-10-20T18:37:51.992Z,97732.20
2017-10-20T18:40:21.069Z,97737.14
2017-10-20T18:42:50.258Z,97741.48
2017-10-20T18:45:17.979Z,97742.97
2017-10-20T18:47:46.147Z,97739.69
2017-10-20T18:50:14.684Z,97743.38
2017-10-20T18:52:42.681Z,97737.44
2017-10-20T18:55:11.645Z,97735.19
2017-10-20T18:57:39.722Z,97734.69
2017-10-20T19:00:08.480Z,97738.44
2017-10-20T19:02:36.417Z,97742.58
2017-10-20T19:05:05.109Z,97738.70
2017-10-20T19:07:33.312Z,97735.42
2017-10-20T19:10:01.032Z,97737.70
2017-10-20T19:12:29.412Z,97743.64
2017-10-20T19:14:58.352Z,97740.02
2017-10-20T19:17:26.006Z,97700.66
2017-10-20T19:19:53.643Z,97747.45
2017-10-20T19:22:23.127Z,97745.30
2017-10-20T19:24:52.500Z,97752.42
2017-10-20T19:27:20.547Z,97756.38
2017-10-20T19:29:48.273Z,97755.12
2017-10-20T19:32:16.142Z,97755.88
2017-10-20T19:34:44.807Z,97751.63
2017-10-20T19:37:12.395Z,97759.19
2017-10-20T19:39:40.000Z,97769.04
2017-10-20T19:42:09.204Z,97763.03
2017-10-20T19:44:36.738Z,97764.59
2017-10-20T19:47:04.520Z,97755.21
2017-10-20T19:49:32.298Z,97768.01
2017-10-20T19:52:00.751Z,97765.85
2017-10-20T19:54:29.360Z,97766.03
2017-10-20T19:56:57.612Z,97769.14
2017-10-20T19:59:25.189Z,97770.66
2017-10-20T20:01:55.949Z,97767.14
2017-10-20T20:04:23.640Z,97777.10
2017-10-20T20:06:51.159Z,97777.47
2017-10-20T20:09:19.888Z,97774.66
2017-10-20T20:11:47.636Z,97774.94
2017-10-20T20:14:15.353Z,97777.71
2017-10-20T20:16:42.987Z,97779.12
2017-10-20T20:19:12.916Z,97782.89
2017-10-20T20:21:40.711Z,97783.39
2017-10-20T20:24:08.807Z,97789.61
2017-10-20T20:26:37.362Z,97781.23
2017-10-20T20:29:04.912Z,97777.60
2017-10-20T20:31:38.994Z,97777.52
2017-10-20T20:34:16.730Z,97777.45
2017-10-20T20:36:44.242Z,97776.48
2017-10-20T20:39:12.864Z,97778.02
2017-10-20T20:41:41.971Z,97768.92
2017-10-20T20:44:10.547Z,97769.53
2017-10-20T20:46:38.357Z,97751.55
2017-10-20T20:49:06.917Z,97777.92
2017-10-20T20:51:35.790Z,97776.56
2017-10-20T20:54:03.398Z,97779.86
2017-10-20T20:56:31.093Z,97774.24
2017-10-20T20:58:58.727Z,97769.84
2017-10-20T21:01:26.376Z,97765.53
2017-10-20T21:03:54.092Z,97759.50
2017-10-20T21:06:21.891Z,97759.09
2017-10-20T21:08:51.008Z,97759.53
2017-10-20T21:11:18.746Z,97756.52
2017-10-20T21:13:46.545Z,97762.89
2017-10-20T21:16:14.278Z,97759.57
2017-10-20T21:18:42.831Z,97756.78
2017-10-20T21:21:12.218Z,97762.66
2017-10-20T21:23:39.999Z,97764.27
2017-10-20T21:26:08.555Z,97765.94
2017-10-20T21:28:36.362Z,97766.86
2017-10-20T21:31:04.355Z,97764.31
2017-10-20T21:33:32.082Z,97758.41
2017-10-20T21:35:59.757Z,97761.13
2017-10-20T21:38:28.707Z,97761.65
2017-10-20T21:40:56.496Z,97751.28
2017-10-20T21:43:24.195Z,97671.55
2017-10-20T21:45:52.626Z,97752.83
2017-10-20T21:48:20.209Z,97748.84
2017-10-20T21:50:47.860Z,97749.97
2017-10-20T21:53:16.039Z,97754.83
2017-10-20T21:55:43.584Z,97756.62
2017-10-20T21:58:11.201Z,97755.30
2017-10-20T22:00:38.791Z,97760.41
2017-10-20T22:03:07.206Z,97753.88
2017-10-20T22:05:34.807Z,97749.61
2017-10-20T22:08:02.490Z,97752.64
2017-10-20T22:10:30.085Z,97759.84
2017-10-20T22:12:57.618Z,97758.80
2017-10-20T22:15:26.331Z,97768.85
2017-10-20T22:17:53.930Z,97767.26
2017-10-20T22:20:22.274Z,97771.89
2017-10-20T22:22:49.927Z,97759.55
2017-10-20T22:25:17.845Z,97764.25
2017-10-20T22:27:47.214Z,97770.07
2017-10-20T22:30:15.690Z,97764.25
2017-10-20T22:32:44.261Z,97766.55
2017-10-20T22:35:13.188Z,97765.77
2017-10-20T22:37:43.804Z,97772.47
2017-10-20T22:40:13.027Z,97770.07
2017-10-20T22:42:41.376Z,97763.11
2017-10-20T22:45:09.117Z,97761.20
2017-10-20T22:47:36.714Z,97759.30
2017-10-20T22:50:04.299Z,97760.80
2017-10-20T22:52:31.930Z,97761.68
2017-10-20T22:54:59.615Z,97761.22
2017-10-20T22:57:27.283Z,97753.47
2017-10-20T22:59:54.988Z,97764.70
2017-10-20T23:02:22.919Z,97759.16
2017-10-20T23:04:50.540Z,97761.13
2017-10-20T23:07:18.179Z,97764.23
2017-10-20T23:09:45.847Z,97755.38
2017-10-20T23:12:13.756Z,97767.73
2017-10-20T23:14:42.158Z,97778.19
2017-10-20T23:17:10.011Z,97777.06
2017-10-20T23:19:37.613Z,97721.93
2017-10-20T23:22:05.856Z,97774.03
2017-10-20T23:24:34.707Z,97769.09
2017-10-20T23:27:03.269Z,97778.91
2017-10-20T23:29:31.968Z,97775.72
2017-10-20T23:31:59.615Z,97773.23
2017-10-20T23:34:27.996Z,97769.97
2017-10-20T23:36:55.599Z,97779.38
2017-10-20T23:39:24.339Z,97772.28
2017-10-20T23:41:53.012Z,97777.94
2017-10-20T23:44:20.570Z,97783.05
2017-10-20T23:46:49.062Z,97774.62
2017-10-20T23:49:16.659Z,97780.73
2017-10-20T23:51:44.621Z,97784.16
2017-10-20T23:54:12.246Z,97782.42
2017-10-20T23:56:40.041Z,97789.98
2017-10-20T23:59:07.634Z,97793.75
